sensor_id;sensor_type;location;lat;lon;timestamp;P1;durP1;ratioP1;P2;durP2;ratioP2
7045;SDS011;3564;53.326;10.356;2023-07-20T00:01:26;2.63;;;1.60;;
7045;SDS011;3564;53.326;10.356;2023-07-20T00:03:52;1.77;;;1.60;;
7045;SDS011;3564;53.326;10.356;2023-07-20T00:06:24;1.80;;;1.70;;
7045;SDS011;3564;53.326;10.356;2023-07-20T00:08:52;2.23;;;1.57;;
7045;SDS011;3564;53.326;10.356;2023-07-20T00:11:18;3.73;;;1.90;;
7045;SDS011;3564;53.326;10.356;2023-07-20T00:13:44;1.70;;;1.60;;
7045;SDS011;3564;53.326;10.356;2023-07-20T00:16:10;2.43;;;1.70;;
7045;SDS011;3564;53.326;10.356;2023-07-20T00:18:35;2.57;;;1.80;;
7045;SDS011;3564;53.326;10.356;2023-07-20T00:21:01;4.00;;;1.93;;
7045;SDS011;3564;53.326;10.356;2023-07-20T00:23:27;3.17;;;2.23;;
7045;SDS011;3564;53.326;10.356;2023-07-20T00:25:52;2.27;;;1.90;;
7045;SDS011;3564;53.326;10.356;2023-07-20T00:28:18;3.33;;;1.70;;
7045;SDS011;3564;53.326;10.356;2023-07-20T00:30:44;3.40;;;1.83;;
7045;SDS011;3564;53.326;10.356;2023-07-20T00:33:10;1.90;;;1.80;;
7045;SDS011;3564;53.326;10.356;2023-07-20T00:35:42;2.10;;;1.80;;
7045;SDS011;3564;53.326;10.356;2023-07-20T00:38:08;1.80;;;1.70;;
7045;SDS011;3564;53.326;10.356;2023-07-20T00:40:40;2.40;;;1.80;;
7045;SDS011;3564;53.326;10.356;2023-07-20T00:43:06;2.27;;;1.90;;
7045;SDS011;3564;53.326;10.356;2023-07-20T00:45:32;1.90;;;1.80;;
7045;SDS011;3564;53.326;10.356;2023-07-20T00:47:59;2.10;;;1.80;;
7045;SDS011;3564;53.326;10.356;2023-07-20T00:50:26;2.67;;;1.80;;
7045;SDS011;3564;53.326;10.356;2023-07-20T00:52:54;2.13;;;1.90;;
7045;SDS011;3564;53.326;10.356;2023-07-20T00:55:21;2.20;;;2.00;;
7045;SDS011;3564;53.326;10.356;2023-07-20T00:57:48;3.50;;;1.83;;
7045;SDS011;3564;53.326;10.356;2023-07-20T01:00:14;2.37;;;1.87;;
7045;SDS011;3564;53.326;10.356;2023-07-20T01:02:40;4.40;;;2.00;;
7045;SDS011;3564;53.326;10.356;2023-07-20T01:05:06;1.77;;;1.67;;
7045;SDS011;3564;53.326;10.356;2023-07-20T01:07:40;3.37;;;1.73;;
7045;SDS011;3564;53.326;10.356;2023-07-20T01:12:43;1.70;;;1.60;;
7045;SDS011;3564;53.326;10.356;2023-07-20T01:15:12;2.03;;;1.87;;
7045;SDS011;3564;53.326;10.356;2023-07-20T01:17:41;2.73;;;1.93;;
7045;SDS011;3564;53.326;10.356;2023-07-20T01:20:06;2.40;;;1.70;;
7045;SDS011;3564;53.326;10.356;2023-07-20T01:33:44;2.57;;;1.90;;
7045;SDS011;3564;53.326;10.356;2023-07-20T01:36:12;2.67;;;1.83;;
7045;SDS011;3564;53.326;10.356;2023-07-20T01:38:39;2.13;;;1.90;;
7045;SDS011;3564;53.326;10.356;2023-07-20T01:41:04;2.27;;;1.77;;
7045;SDS011;3564;53.326;10.356;2023-07-20T01:43:30;4.17;;;1.83;;
7045;SDS011;3564;53.326;10.356;2023-07-20T01:45:56;2.17;;;1.97;;
7045;SDS011;3564;53.326;10.356;2023-07-20T01:48:22;2.27;;;2.07;;
7045;SDS011;3564;53.326;10.356;2023-07-20T01:50:53;2.57;;;2.20;;
7045;SDS011;3564;53.326;10.356;2023-07-20T01:53:25;2.60;;;2.40;;
7045;SDS011;3564;53.326;10.356;2023-07-20T01:55:59;2.50;;;2.30;;
7045;SDS011;3564;53.326;10.356;2023-07-20T01:58:25;3.30;;;2.13;;
7045;SDS011;3564;53.326;10.356;2023-07-20T02:00:51;2.93;;;2.37;;
7045;SDS011;3564;53.326;10.356;2023-07-20T02:03:16;2.70;;;2.10;;
7045;SDS011;3564;53.326;10.356;2023-07-20T02:05:42;2.30;;;1.90;;
7045;SDS011;3564;53.326;10.356;2023-07-20T02:08:08;2.20;;;1.90;;
7045;SDS011;3564;53.326;10.356;2023-07-20T02:10:34;3.23;;;2.00;;
7045;SDS011;3564;53.326;10.356;2023-07-20T02:13:00;2.30;;;2.10;;
7045;SDS011;3564;53.326;10.356;2023-07-20T02:15:28;2.33;;;2.10;;
7045;SDS011;3564;53.326;10.356;2023-07-20T02:18:00;2.33;;;2.17;;
7045;SDS011;3564;53.326;10.356;2023-07-20T02:20:25;3.23;;;2.37;;
7045;SDS011;3564;53.326;10.356;2023-07-20T02:22:52;3.77;;;2.20;;
7045;SDS011;3564;53.326;10.356;2023-07-20T02:25:18;4.23;;;2.27;;
7045;SDS011;3564;53.326;10.356;2023-07-20T02:27:43;2.50;;;2.30;;
7045;SDS011;3564;53.326;10.356;2023-07-20T02:30:09;4.10;;;2.60;;
7045;SDS011;3564;53.326;10.356;2023-07-20T02:32:38;2.80;;;2.20;;
7045;SDS011;3564;53.326;10.356;2023-07-20T02:35:11;3.00;;;2.23;;
7045;SDS011;3564;53.326;10.356;2023-07-20T02:37:36;2.53;;;2.33;;
7045;SDS011;3564;53.326;10.356;2023-07-20T02:40:02;2.40;;;2.20;;
7045;SDS011;3564;53.326;10.356;2023-07-20T02:42:29;3.53;;;2.40;;
7045;SDS011;3564;53.326;10.356;2023-07-20T02:44:55;3.33;;;2.70;;
7045;SDS011;3564;53.326;10.356;2023-07-20T02:47:21;2.83;;;2.40;;
7045;SDS011;3564;53.326;10.356;2023-07-20T02:49:49;3.40;;;2.50;;
7045;SDS011;3564;53.326;10.356;2023-07-20T02:52:15;3.17;;;2.30;;
7045;SDS011;3564;53.326;10.356;2023-07-20T02:54:43;3.33;;;2.57;;
7045;SDS011;3564;53.326;10.356;2023-07-20T02:57:09;3.87;;;2.80;;
7045;SDS011;3564;53.326;10.356;2023-07-20T02:59:34;3.83;;;2.77;;
7045;SDS011;3564;53.326;10.356;2023-07-20T03:02:00;4.70;;;2.90;;
7045;SDS011;3564;53.326;10.356;2023-07-20T03:04:26;6.23;;;3.23;;
7045;SDS011;3564;53.326;10.356;2023-07-20T03:06:52;4.13;;;2.87;;
7045;SDS011;3564;53.326;10.356;2023-07-20T03:09:18;2.63;;;2.43;;
7045;SDS011;3564;53.326;10.356;2023-07-20T03:11:43;3.43;;;2.50;;
7045;SDS011;3564;53.326;10.356;2023-07-20T03:14:09;3.10;;;2.80;;
7045;SDS011;3564;53.326;10.356;2023-07-20T03:16:35;4.60;;;2.90;;
7045;SDS011;3564;53.326;10.356;2023-07-20T03:19:04;4.67;;;2.93;;
7045;SDS011;3564;53.326;10.356;2023-07-20T03:21:39;3.40;;;2.87;;
7045;SDS011;3564;53.326;10.356;2023-07-20T03:24:06;3.10;;;2.90;;
7045;SDS011;3564;53.326;10.356;2023-07-20T03:26:33;3.63;;;2.70;;
7045;SDS011;3564;53.326;10.356;2023-07-20T03:28:59;3.60;;;2.93;;
7045;SDS011;3564;53.326;10.356;2023-07-20T03:31:25;6.20;;;3.00;;
7045;SDS011;3564;53.326;10.356;2023-07-20T03:33:50;3.57;;;2.93;;
7045;SDS011;3564;53.326;10.356;2023-07-20T03:36:17;7.60;;;3.10;;
7045;SDS011;3564;53.326;10.356;2023-07-20T03:38:45;3.43;;;2.87;;
7045;SDS011;3564;53.326;10.356;2023-07-20T03:41:11;3.20;;;2.90;;
7045;SDS011;3564;53.326;10.356;2023-07-20T03:43:44;6.80;;;3.03;;
7045;SDS011;3564;53.326;10.356;2023-07-20T03:46:13;3.20;;;2.77;;
7045;SDS011;3564;53.326;10.356;2023-07-20T03:48:42;3.43;;;2.60;;
7045;SDS011;3564;53.326;10.356;2023-07-20T03:51:07;3.93;;;2.73;;
7045;SDS011;3564;53.326;10.356;2023-07-20T03:53:33;5.60;;;2.83;;
7045;SDS011;3564;53.326;10.356;2023-07-20T03:55:58;3.33;;;2.67;;
7045;SDS011;3564;53.326;10.356;2023-07-20T03:58:24;3.47;;;2.30;;
7045;SDS011;3564;53.326;10.356;2023-07-20T04:00:50;3.20;;;2.90;;
7045;SDS011;3564;53.326;10.356;2023-07-20T04:03:20;5.10;;;3.07;;
7045;SDS011;3564;53.326;10.356;2023-07-20T04:05:46;4.00;;;2.50;;
7045;SDS011;3564;53.326;10.356;2023-07-20T04:08:11;3.47;;;2.70;;
7045;SDS011;3564;53.326;10.356;2023-07-20T04:10:42;3.57;;;3.00;;
7045;SDS011;3564;53.326;10.356;2023-07-20T04:13:09;3.57;;;2.70;;
7045;SDS011;3564;53.326;10.356;2023-07-20T04:15:35;3.23;;;2.83;;
7045;SDS011;3564;53.326;10.356;2023-07-20T04:18:00;3.23;;;2.93;;
7045;SDS011;3564;53.326;10.356;2023-07-20T04:20:32;3.57;;;2.90;;
7045;SDS011;3564;53.326;10.356;2023-07-20T04:22:57;3.20;;;2.90;;
7045;SDS011;3564;53.326;10.356;2023-07-20T04:25:23;3.17;;;2.77;;
7045;SDS011;3564;53.326;10.356;2023-07-20T04:27:48;2.90;;;2.70;;
7045;SDS011;3564;53.326;10.356;2023-07-20T04:30:16;4.27;;;2.93;;
7045;SDS011;3564;53.326;10.356;2023-07-20T04:32:45;2.70;;;2.50;;
7045;SDS011;3564;53.326;10.356;2023-07-20T04:35:16;3.57;;;2.93;;
7045;SDS011;3564;53.326;10.356;2023-07-20T04:37:43;3.57;;;2.30;;
7045;SDS011;3564;53.326;10.356;2023-07-20T04:40:11;2.33;;;2.13;;
7045;SDS011;3564;53.326;10.356;2023-07-20T04:42:43;3.20;;;2.50;;
7045;SDS011;3564;53.326;10.356;2023-07-20T04:45:08;3.50;;;2.17;;
7045;SDS011;3564;53.326;10.356;2023-07-20T04:47:34;3.50;;;2.50;;
7045;SDS011;3564;53.326;10.356;2023-07-20T04:49:59;3.30;;;2.20;;
7045;SDS011;3564;53.326;10.356;2023-07-20T04:52:25;2.40;;;2.20;;
7045;SDS011;3564;53.326;10.356;2023-07-20T04:54:50;2.63;;;2.33;;
7045;SDS011;3564;53.326;10.356;2023-07-20T04:57:16;2.90;;;2.30;;
7045;SDS011;3564;53.326;10.356;2023-07-20T04:59:42;2.17;;;1.97;;
7045;SDS011;3564;53.326;10.356;2023-07-20T05:02:07;2.90;;;2.00;;
7045;SDS011;3564;53.326;10.356;2023-07-20T05:04:33;3.40;;;2.20;;
7045;SDS011;3564;53.326;10.356;2023-07-20T05:06:59;2.40;;;2.20;;
7045;SDS011;3564;53.326;10.356;2023-07-20T05:09:25;1.90;;;1.80;;
7045;SDS011;3564;53.326;10.356;2023-07-20T05:11:50;2.50;;;2.07;;
7045;SDS011;3564;53.326;10.356;2023-07-20T05:14:16;2.23;;;2.00;;
7045;SDS011;3564;53.326;10.356;2023-07-20T05:16:41;3.03;;;2.20;;
7045;SDS011;3564;53.326;10.356;2023-07-20T05:19:07;2.20;;;2.00;;
7045;SDS011;3564;53.326;10.356;2023-07-20T05:21:35;2.07;;;1.97;;
7045;SDS011;3564;53.326;10.356;2023-07-20T05:24:10;2.23;;;2.03;;
7045;SDS011;3564;53.326;10.356;2023-07-20T05:26:36;3.47;;;2.07;;
7045;SDS011;3564;53.326;10.356;2023-07-20T05:29:02;2.40;;;2.20;;
7045;SDS011;3564;53.326;10.356;2023-07-20T05:31:28;3.47;;;2.33;;
7045;SDS011;3564;53.326;10.356;2023-07-20T05:33:55;2.23;;;2.00;;
7045;SDS011;3564;53.326;10.356;2023-07-20T05:36:27;2.20;;;2.00;;
7045;SDS011;3564;53.326;10.356;2023-07-20T05:38:52;2.20;;;2.00;;
7045;SDS011;3564;53.326;10.356;2023-07-20T05:41:18;3.17;;;2.47;;
7045;SDS011;3564;53.326;10.356;2023-07-20T05:43:47;3.40;;;2.07;;
7045;SDS011;3564;53.326;10.356;2023-07-20T05:46:13;3.87;;;2.50;;
7045;SDS011;3564;53.326;10.356;2023-07-20T05:48:38;2.13;;;1.93;;
7045;SDS011;3564;53.326;10.356;2023-07-20T05:51:04;4.37;;;2.20;;
7045;SDS011;3564;53.326;10.356;2023-07-20T05:53:34;1.93;;;1.80;;
7045;SDS011;3564;53.326;10.356;2023-07-20T05:56:00;3.53;;;1.70;;
7045;SDS011;3564;53.326;10.356;2023-07-20T05:58:26;3.10;;;1.67;;
7045;SDS011;3564;53.326;10.356;2023-07-20T06:00:53;2.03;;;1.80;;
7045;SDS011;3564;53.326;10.356;2023-07-20T06:03:18;1.40;;;1.30;;
7045;SDS011;3564;53.326;10.356;2023-07-20T06:05:46;2.30;;;1.60;;
7045;SDS011;3564;53.326;10.356;2023-07-20T06:08:12;1.40;;;1.30;;
7045;SDS011;3564;53.326;10.356;2023-07-20T06:10:40;3.20;;;1.57;;
7045;SDS011;3564;53.326;10.356;2023-07-20T06:13:06;2.37;;;1.70;;
7045;SDS011;3564;53.326;10.356;2023-07-20T06:15:32;3.20;;;1.50;;
7045;SDS011;3564;53.326;10.356;2023-07-20T06:17:59;1.40;;;1.30;;
7045;SDS011;3564;53.326;10.356;2023-07-20T06:20:26;1.50;;;1.40;;
7045;SDS011;3564;53.326;10.356;2023-07-20T06:22:51;1.70;;;1.60;;
7045;SDS011;3564;53.326;10.356;2023-07-20T06:25:17;1.43;;;1.33;;
7045;SDS011;3564;53.326;10.356;2023-07-20T06:27:43;2.07;;;1.60;;
7045;SDS011;3564;53.326;10.356;2023-07-20T06:30:09;2.00;;;1.70;;
7045;SDS011;3564;53.326;10.356;2023-07-20T06:32:35;2.07;;;1.77;;
7045;SDS011;3564;53.326;10.356;2023-07-20T06:35:01;2.77;;;2.40;;
7045;SDS011;3564;53.326;10.356;2023-07-20T06:37:26;2.07;;;1.97;;
7045;SDS011;3564;53.326;10.356;2023-07-20T06:39:52;2.57;;;1.90;;
7045;SDS011;3564;53.326;10.356;2023-07-20T06:42:17;2.00;;;1.80;;
7045;SDS011;3564;53.326;10.356;2023-07-20T06:44:43;1.73;;;1.63;;
7045;SDS011;3564;53.326;10.356;2023-07-20T06:47:08;3.23;;;2.13;;
7045;SDS011;3564;53.326;10.356;2023-07-20T06:49:34;3.10;;;2.23;;
7045;SDS011;3564;53.326;10.356;2023-07-20T06:52:00;4.13;;;2.37;;
7045;SDS011;3564;53.326;10.356;2023-07-20T06:54:28;2.10;;;1.90;;
7045;SDS011;3564;53.326;10.356;2023-07-20T06:56:54;2.97;;;1.90;;
7045;SDS011;3564;53.326;10.356;2023-07-20T06:59:20;3.10;;;1.97;;
7045;SDS011;3564;53.326;10.356;2023-07-20T07:01:46;3.53;;;1.90;;
7045;SDS011;3564;53.326;10.356;2023-07-20T07:04:14;2.47;;;1.93;;
7045;SDS011;3564;53.326;10.356;2023-07-20T07:06:40;3.83;;;2.00;;
7045;SDS011;3564;53.326;10.356;2023-07-20T07:09:18;2.40;;;1.70;;
7045;SDS011;3564;53.326;10.356;2023-07-20T07:11:44;3.40;;;1.90;;
7045;SDS011;3564;53.326;10.356;2023-07-20T07:14:09;4.87;;;1.83;;
7045;SDS011;3564;53.326;10.356;2023-07-20T07:16:36;4.10;;;1.83;;
7045;SDS011;3564;53.326;10.356;2023-07-20T07:19:02;2.57;;;1.70;;
7045;SDS011;3564;53.326;10.356;2023-07-20T07:21:28;2.83;;;1.43;;
7045;SDS011;3564;53.326;10.356;2023-07-20T07:23:54;2.87;;;1.40;;
7045;SDS011;3564;53.326;10.356;2023-07-20T07:26:22;1.73;;;1.57;;
7045;SDS011;3564;53.326;10.356;2023-07-20T07:28:48;1.43;;;1.33;;
7045;SDS011;3564;53.326;10.356;2023-07-20T07:31:14;1.90;;;1.30;;
7045;SDS011;3564;53.326;10.356;2023-07-20T07:33:40;1.70;;;1.37;;
7045;SDS011;3564;53.326;10.356;2023-07-20T07:36:08;3.77;;;1.50;;
7045;SDS011;3564;53.326;10.356;2023-07-20T07:38:34;3.23;;;1.77;;
7045;SDS011;3564;53.326;10.356;2023-07-20T07:40:59;1.50;;;1.40;;
7045;SDS011;3564;53.326;10.356;2023-07-20T07:43:25;1.30;;;1.20;;
7045;SDS011;3564;53.326;10.356;2023-07-20T07:45:53;1.40;;;1.30;;
7045;SDS011;3564;53.326;10.356;2023-07-20T07:48:19;2.13;;;1.30;;
7045;SDS011;3564;53.326;10.356;2023-07-20T07:50:46;2.13;;;1.23;;
7045;SDS011;3564;53.326;10.356;2023-07-20T07:53:11;0.93;;;0.90;;
7045;SDS011;3564;53.326;10.356;2023-07-20T07:55:40;1.90;;;1.10;;
7045;SDS011;3564;53.326;10.356;2023-07-20T07:58:06;2.87;;;1.27;;
7045;SDS011;3564;53.326;10.356;2023-07-20T08:00:32;2.17;;;1.40;;
7045;SDS011;3564;53.326;10.356;2023-07-20T08:02:57;2.40;;;1.03;;
7045;SDS011;3564;53.326;10.356;2023-07-20T08:05:23;3.90;;;1.37;;
7045;SDS011;3564;53.326;10.356;2023-07-20T08:07:49;2.27;;;1.23;;
7045;SDS011;3564;53.326;10.356;2023-07-20T08:10:14;1.60;;;1.07;;
7045;SDS011;3564;53.326;10.356;2023-07-20T08:12:43;2.13;;;1.30;;
7045;SDS011;3564;53.326;10.356;2023-07-20T08:15:10;1.00;;;1.00;;
7045;SDS011;3564;53.326;10.356;2023-07-20T08:17:36;1.40;;;1.30;;
7045;SDS011;3564;53.326;10.356;2023-07-20T08:20:02;1.10;;;1.00;;
7045;SDS011;3564;53.326;10.356;2023-07-20T08:22:27;2.07;;;1.00;;
7045;SDS011;3564;53.326;10.356;2023-07-20T08:24:53;1.63;;;1.43;;
7045;SDS011;3564;53.326;10.356;2023-07-20T08:27:18;1.53;;;1.20;;
7045;SDS011;3564;53.326;10.356;2023-07-20T08:29:47;1.40;;;1.30;;
7045;SDS011;3564;53.326;10.356;2023-07-20T08:32:13;2.23;;;1.47;;
7045;SDS011;3564;53.326;10.356;2023-07-20T08:34:42;2.40;;;1.30;;
7045;SDS011;3564;53.326;10.356;2023-07-20T08:37:08;2.30;;;1.30;;
7045;SDS011;3564;53.326;10.356;2023-07-20T08:39:38;1.30;;;1.20;;
7045;SDS011;3564;53.326;10.356;2023-07-20T08:42:04;3.30;;;1.27;;
7045;SDS011;3564;53.326;10.356;2023-07-20T08:44:32;3.07;;;1.00;;
7045;SDS011;3564;53.326;10.356;2023-07-20T08:47:05;2.40;;;1.13;;
7045;SDS011;3564;53.326;10.356;2023-07-20T08:49:32;1.37;;;1.27;;
7045;SDS011;3564;53.326;10.356;2023-07-20T08:51:59;1.60;;;1.03;;
7045;SDS011;3564;53.326;10.356;2023-07-20T08:54:26;1.37;;;1.27;;
7045;SDS011;3564;53.326;10.356;2023-07-20T08:56:57;3.83;;;1.27;;
7045;SDS011;3564;53.326;10.356;2023-07-20T08:59:25;2.87;;;1.30;;
7045;SDS011;3564;53.326;10.356;2023-07-20T09:01:51;2.87;;;1.37;;
7045;SDS011;3564;53.326;10.356;2023-07-20T09:04:19;3.33;;;1.40;;
7045;SDS011;3564;53.326;10.356;2023-07-20T09:06:44;2.50;;;1.33;;
7045;SDS011;3564;53.326;10.356;2023-07-20T09:09:10;2.37;;;1.30;;
7045;SDS011;3564;53.326;10.356;2023-07-20T09:11:36;1.90;;;1.30;;
7045;SDS011;3564;53.326;10.356;2023-07-20T09:14:02;1.50;;;1.10;;
7045;SDS011;3564;53.326;10.356;2023-07-20T09:16:31;1.50;;;1.20;;
7045;SDS011;3564;53.326;10.356;2023-07-20T09:18:57;1.77;;;1.30;;
7045;SDS011;3564;53.326;10.356;2023-07-20T09:21:24;4.83;;;1.33;;
7045;SDS011;3564;53.326;10.356;2023-07-20T09:23:56;1.87;;;1.37;;
7045;SDS011;3564;53.326;10.356;2023-07-20T09:26:25;1.30;;;1.20;;
7045;SDS011;3564;53.326;10.356;2023-07-20T09:28:53;1.43;;;1.30;;
7045;SDS011;3564;53.326;10.356;2023-07-20T09:31:21;1.63;;;1.20;;
7045;SDS011;3564;53.326;10.356;2023-07-20T09:33:48;3.33;;;1.57;;
7045;SDS011;3564;53.326;10.356;2023-07-20T09:36:15;4.20;;;1.63;;
7045;SDS011;3564;53.326;10.356;2023-07-20T09:38:43;1.67;;;1.50;;
7045;SDS011;3564;53.326;10.356;2023-07-20T09:41:15;1.80;;;1.63;;
7045;SDS011;3564;53.326;10.356;2023-07-20T09:43:43;1.97;;;1.40;;
7045;SDS011;3564;53.326;10.356;2023-07-20T09:46:10;3.03;;;1.53;;
7045;SDS011;3564;53.326;10.356;2023-07-20T09:48:51;2.17;;;1.53;;
7045;SDS011;3564;53.326;10.356;2023-07-20T09:51:22;3.10;;;1.70;;
7045;SDS011;3564;53.326;10.356;2023-07-20T09:53:49;4.47;;;1.90;;
7045;SDS011;3564;53.326;10.356;2023-07-20T09:56:17;5.90;;;2.10;;
7045;SDS011;3564;53.326;10.356;2023-07-20T09:58:46;2.60;;;1.80;;
7045;SDS011;3564;53.326;10.356;2023-07-20T10:01:13;4.03;;;1.50;;
7045;SDS011;3564;53.326;10.356;2023-07-20T10:03:46;2.37;;;1.77;;
7045;SDS011;3564;53.326;10.356;2023-07-20T10:06:15;3.33;;;1.90;;
7045;SDS011;3564;53.326;10.356;2023-07-20T10:08:45;3.07;;;1.77;;
7045;SDS011;3564;53.326;10.356;2023-07-20T10:11:15;2.70;;;1.60;;
7045;SDS011;3564;53.326;10.356;2023-07-20T10:13:42;1.93;;;1.80;;
7045;SDS011;3564;53.326;10.356;2023-07-20T10:16:12;2.90;;;1.80;;
7045;SDS011;3564;53.326;10.356;2023-07-20T10:21:19;3.37;;;2.00;;
7045;SDS011;3564;53.326;10.356;2023-07-20T10:23:47;2.13;;;1.60;;
7045;SDS011;3564;53.326;10.356;2023-07-20T10:26:16;5.03;;;1.80;;
7045;SDS011;3564;53.326;10.356;2023-07-20T10:28:45;4.20;;;1.60;;
7045;SDS011;3564;53.326;10.356;2023-07-20T10:31:11;4.77;;;1.50;;
7045;SDS011;3564;53.326;10.356;2023-07-20T10:33:38;1.43;;;1.33;;
7045;SDS011;3564;53.326;10.356;2023-07-20T10:36:04;3.07;;;1.57;;
7045;SDS011;3564;53.326;10.356;2023-07-20T10:38:40;3.07;;;1.80;;
7045;SDS011;3564;53.326;10.356;2023-07-20T10:41:15;5.03;;;1.80;;
7045;SDS011;3564;53.326;10.356;2023-07-20T10:43:57;2.57;;;1.63;;
7045;SDS011;3564;53.326;10.356;2023-07-20T10:49:04;4.70;;;1.93;;
7045;SDS011;3564;53.326;10.356;2023-07-20T10:51:31;2.53;;;1.90;;
7045;SDS011;3564;53.326;10.356;2023-07-20T10:56:43;2.37;;;1.67;;
7045;SDS011;3564;53.326;10.356;2023-07-20T10:59:19;5.10;;;1.90;;
7045;SDS011;3564;53.326;10.356;2023-07-20T11:01:45;3.00;;;1.60;;
7045;SDS011;3564;53.326;10.356;2023-07-20T11:04:15;4.83;;;1.60;;
7045;SDS011;3564;53.326;10.356;2023-07-20T11:06:44;4.00;;;1.50;;
7045;SDS011;3564;53.326;10.356;2023-07-20T11:09:11;2.80;;;1.73;;
7045;SDS011;3564;53.326;10.356;2023-07-20T11:11:42;2.37;;;1.70;;
7045;SDS011;3564;53.326;10.356;2023-07-20T11:14:24;5.10;;;1.57;;
7045;SDS011;3564;53.326;10.356;2023-07-20T11:16:52;2.17;;;1.57;;
7045;SDS011;3564;53.326;10.356;2023-07-20T11:19:19;3.87;;;1.70;;
7045;SDS011;3564;53.326;10.356;2023-07-20T11:21:55;3.77;;;1.80;;
7045;SDS011;3564;53.326;10.356;2023-07-20T11:24:22;4.57;;;1.93;;
7045;SDS011;3564;53.326;10.356;2023-07-20T11:26:52;3.25;;;1.80;;
7045;SDS011;3564;53.326;10.356;2023-07-20T11:29:22;5.33;;;1.90;;
7045;SDS011;3564;53.326;10.356;2023-07-20T11:31:53;2.47;;;1.60;;
7045;SDS011;3564;53.326;10.356;2023-07-20T11:34:20;6.33;;;1.93;;
7045;SDS011;3564;53.326;10.356;2023-07-20T11:36:50;3.20;;;1.83;;
7045;SDS011;3564;53.326;10.356;2023-07-20T11:39:17;2.23;;;1.67;;
7045;SDS011;3564;53.326;10.356;2023-07-20T11:41:48;2.60;;;1.50;;
7045;SDS011;3564;53.326;10.356;2023-07-20T11:44:18;3.20;;;1.50;;
7045;SDS011;3564;53.326;10.356;2023-07-20T11:47:03;2.97;;;1.30;;
7045;SDS011;3564;53.326;10.356;2023-07-20T11:49:30;2.70;;;1.03;;
7045;SDS011;3564;53.326;10.356;2023-07-20T11:52:00;2.60;;;1.37;;
7045;SDS011;3564;53.326;10.356;2023-07-20T11:54:26;2.43;;;1.30;;
7045;SDS011;3564;53.326;10.356;2023-07-20T11:56:55;3.97;;;1.30;;
7045;SDS011;3564;53.326;10.356;2023-07-20T11:59:21;2.73;;;1.43;;
7045;SDS011;3564;53.326;10.356;2023-07-20T12:01:47;1.63;;;1.20;;
7045;SDS011;3564;53.326;10.356;2023-07-20T12:04:17;1.00;;;0.90;;
7045;SDS011;3564;53.326;10.356;2023-07-20T12:06:46;1.40;;;1.10;;
7045;SDS011;3564;53.326;10.356;2023-07-20T12:09:14;1.43;;;0.80;;
7045;SDS011;3564;53.326;10.356;2023-07-20T12:11:42;1.40;;;0.90;;
7045;SDS011;3564;53.326;10.356;2023-07-20T12:14:09;1.33;;;0.90;;
7045;SDS011;3564;53.326;10.356;2023-07-20T12:16:35;1.57;;;1.10;;
7045;SDS011;3564;53.326;10.356;2023-07-20T12:19:04;3.47;;;1.30;;
7045;SDS011;3564;53.326;10.356;2023-07-20T12:21:35;1.90;;;1.10;;
7045;SDS011;3564;53.326;10.356;2023-07-20T12:24:02;2.83;;;1.17;;
7045;SDS011;3564;53.326;10.356;2023-07-20T12:26:28;1.30;;;1.00;;
7045;SDS011;3564;53.326;10.356;2023-07-20T12:28:55;1.63;;;0.90;;
7045;SDS011;3564;53.326;10.356;2023-07-20T12:31:21;2.10;;;0.90;;
7045;SDS011;3564;53.326;10.356;2023-07-20T12:33:51;2.77;;;1.03;;
7045;SDS011;3564;53.326;10.356;2023-07-20T12:36:17;2.00;;;1.03;;
7045;SDS011;3564;53.326;10.356;2023-07-20T12:38:43;1.53;;;1.03;;
7045;SDS011;3564;53.326;10.356;2023-07-20T12:41:10;2.20;;;1.10;;
7045;SDS011;3564;53.326;10.356;2023-07-20T12:43:43;1.10;;;1.00;;
7045;SDS011;3564;53.326;10.356;2023-07-20T12:46:10;2.03;;;1.20;;
7045;SDS011;3564;53.326;10.356;2023-07-20T12:48:39;3.23;;;1.10;;
7045;SDS011;3564;53.326;10.356;2023-07-20T12:51:07;2.30;;;1.23;;
7045;SDS011;3564;53.326;10.356;2023-07-20T12:53:34;2.17;;;1.20;;
7045;SDS011;3564;53.326;10.356;2023-07-20T12:56:02;2.70;;;1.17;;
7045;SDS011;3564;53.326;10.356;2023-07-20T12:58:28;3.47;;;1.17;;
7045;SDS011;3564;53.326;10.356;2023-07-20T13:00:54;5.27;;;1.20;;
7045;SDS011;3564;53.326;10.356;2023-07-20T13:03:19;1.87;;;1.00;;
7045;SDS011;3564;53.326;10.356;2023-07-20T13:05:46;1.50;;;1.07;;
7045;SDS011;3564;53.326;10.356;2023-07-20T13:08:15;1.37;;;1.10;;
7045;SDS011;3564;53.326;10.356;2023-07-20T13:10:41;1.63;;;1.10;;
7045;SDS011;3564;53.326;10.356;2023-07-20T13:13:07;3.13;;;1.13;;
7045;SDS011;3564;53.326;10.356;2023-07-20T13:15:40;4.63;;;1.03;;
7045;SDS011;3564;53.326;10.356;2023-07-20T13:18:06;2.53;;;1.20;;
7045;SDS011;3564;53.326;10.356;2023-07-20T13:20:34;0.77;;;0.77;;
7045;SDS011;3564;53.326;10.356;2023-07-20T13:23:00;1.47;;;0.97;;
7045;SDS011;3564;53.326;10.356;2023-07-20T13:25:28;2.20;;;1.00;;
7045;SDS011;3564;53.326;10.356;2023-07-20T13:27:54;1.37;;;1.17;;
7045;SDS011;3564;53.326;10.356;2023-07-20T13:30:20;0.80;;;0.80;;
7045;SDS011;3564;53.326;10.356;2023-07-20T13:32:46;1.17;;;0.80;;
7045;SDS011;3564;53.326;10.356;2023-07-20T13:35:12;0.90;;;0.90;;
7045;SDS011;3564;53.326;10.356;2023-07-20T13:37:37;2.07;;;1.00;;
7045;SDS011;3564;53.326;10.356;2023-07-20T13:40:03;1.00;;;0.90;;
7045;SDS011;3564;53.326;10.356;2023-07-20T13:42:30;2.13;;;0.87;;
7045;SDS011;3564;53.326;10.356;2023-07-20T13:44:56;0.80;;;0.80;;
7045;SDS011;3564;53.326;10.356;2023-07-20T13:47:26;1.30;;;0.90;;
7045;SDS011;3564;53.326;10.356;2023-07-20T13:49:51;2.67;;;1.30;;
7045;SDS011;3564;53.326;10.356;2023-07-20T13:52:17;1.30;;;1.03;;
7045;SDS011;3564;53.326;10.356;2023-07-20T13:54:45;1.97;;;1.10;;
7045;SDS011;3564;53.326;10.356;2023-07-20T13:57:11;3.03;;;1.20;;
7045;SDS011;3564;53.326;10.356;2023-07-20T13:59:36;2.23;;;1.00;;
7045;SDS011;3564;53.326;10.356;2023-07-20T14:02:02;2.50;;;1.13;;
7045;SDS011;3564;53.326;10.356;2023-07-20T14:04:28;4.00;;;1.20;;
7045;SDS011;3564;53.326;10.356;2023-07-20T14:06:54;3.27;;;1.30;;
7045;SDS011;3564;53.326;10.356;2023-07-20T14:09:19;2.73;;;1.40;;
7045;SDS011;3564;53.326;10.356;2023-07-20T14:11:45;2.93;;;1.07;;
7045;SDS011;3564;53.326;10.356;2023-07-20T14:14:10;3.13;;;1.40;;
7045;SDS011;3564;53.326;10.356;2023-07-20T14:16:39;2.67;;;1.07;;
7045;SDS011;3564;53.326;10.356;2023-07-20T14:19:04;2.93;;;1.10;;
7045;SDS011;3564;53.326;10.356;2023-07-20T14:21:30;2.00;;;0.90;;
7045;SDS011;3564;53.326;10.356;2023-07-20T14:23:59;2.03;;;1.00;;
7045;SDS011;3564;53.326;10.356;2023-07-20T14:26:31;4.40;;;1.30;;
7045;SDS011;3564;53.326;10.356;2023-07-20T14:28:59;1.93;;;1.10;;
7045;SDS011;3564;53.326;10.356;2023-07-20T14:31:26;0.90;;;0.90;;
7045;SDS011;3564;53.326;10.356;2023-07-20T14:33:55;1.07;;;0.90;;
7045;SDS011;3564;53.326;10.356;2023-07-20T14:36:20;1.17;;;0.83;;
7045;SDS011;3564;53.326;10.356;2023-07-20T14:38:46;1.80;;;0.90;;
7045;SDS011;3564;53.326;10.356;2023-07-20T14:41:11;3.43;;;1.10;;
7045;SDS011;3564;53.326;10.356;2023-07-20T14:43:37;3.60;;;1.00;;
7045;SDS011;3564;53.326;10.356;2023-07-20T14:46:06;1.60;;;1.07;;
7045;SDS011;3564;53.326;10.356;2023-07-20T14:48:35;2.00;;;1.13;;
7045;SDS011;3564;53.326;10.356;2023-07-20T14:51:00;4.17;;;1.10;;
7045;SDS011;3564;53.326;10.356;2023-07-20T14:53:26;2.17;;;1.20;;
7045;SDS011;3564;53.326;10.356;2023-07-20T14:55:57;2.50;;;1.00;;
7045;SDS011;3564;53.326;10.356;2023-07-20T14:58:23;2.30;;;1.10;;
7045;SDS011;3564;53.326;10.356;2023-07-20T15:00:49;3.30;;;1.20;;
7045;SDS011;3564;53.326;10.356;2023-07-20T15:03:15;2.80;;;1.00;;
7045;SDS011;3564;53.326;10.356;2023-07-20T15:05:40;2.50;;;1.20;;
7045;SDS011;3564;53.326;10.356;2023-07-20T15:08:06;3.07;;;1.23;;
7045;SDS011;3564;53.326;10.356;2023-07-20T15:10:33;1.40;;;0.97;;
7045;SDS011;3564;53.326;10.356;2023-07-20T15:12:59;0.83;;;0.83;;
7045;SDS011;3564;53.326;10.356;2023-07-20T15:15:25;2.67;;;1.00;;
7045;SDS011;3564;53.326;10.356;2023-07-20T15:17:51;2.00;;;1.10;;
7045;SDS011;3564;53.326;10.356;2023-07-20T15:20:19;1.17;;;0.90;;
7045;SDS011;3564;53.326;10.356;2023-07-20T15:22:45;1.13;;;0.80;;